Time;durP1;ratioP1;P1;durP2;ratioP2;P2;SDS_P1;SDS_P2;PMS_P1;PMS_P2;Temp;Humidity;BMP_temperature;BMP_pressure;BME280_temperature;BME280_humidity;BME280_pressure;Samples;Min_cycle;Max_cycle;Signal;HPM_P1;HPM_P2
2022/11/25 00:00:11;;;;;;;12.40;3.42;;;6.10;99.90;;;;;;5079221;28;20275;-57
2022/11/25 00:02:43;;;;;;;14.20;3.38;;;6.10;99.90;;;;;;5078259;28;20055;-57
2022/11/25 00:05:09;;;;;;;10.15;4.05;;;6.10;99.90;;;;;;5083751;28;20044;-57
2022/11/25 00:07:35;;;;;;;15.38;3.63;;;6.10;99.90;;;;;;5086319;28;20058;-56
2022/11/25 00:10:01;;;;;;;14.95;3.08;;;6.10;99.90;;;;;;5085763;28;20104;-57
2022/11/25 00:12:27;;;;;;;16.08;4.38;;;6.10;99.90;;;;;;5086304;28;20163;-57
2022/11/25 00:14:52;;;;;;;11.00;3.00;;;6.10;99.90;;;;;;5083874;28;20048;-58
2022/11/25 00:17:18;;;;;;;13.13;3.58;;;6.10;99.90;;;;;;5078528;28;20063;-57
2022/11/25 00:19:43;;;;;;;10.88;3.58;;;6.10;99.90;;;;;;5093848;27;20055;-57
2022/11/25 00:22:09;;;;;;;8.63;3.33;;;6.10;99.90;;;;;;5084780;28;20048;-57
2022/11/25 00:24:35;;;;;;;15.85;3.78;;;6.40;99.90;;;;;;5080351;28;20163;-61
2022/11/25 00:27:03;;;;;;;10.80;3.63;;;6.20;99.90;;;;;;5068618;28;20055;-59
2022/11/25 00:29:33;;;;;;;12.63;3.20;;;6.20;99.90;;;;;;5079506;28;20060;-56
2022/11/25 00:31:58;;;;;;;15.65;3.90;;;6.20;99.90;;;;;;5069165;28;20056;-57
2022/11/25 00:34:24;;;;;;;11.60;3.38;;;6.20;99.90;;;;;;5073735;28;20062;-58
2022/11/25 00:36:52;;;;;;;12.23;3.50;;;6.20;99.90;;;;;;5095705;27;20132;-57
2022/11/25 00:39:18;;;;;;;8.52;3.13;;;6.20;99.90;;;;;;5071286;28;20144;-56
2022/11/25 00:44:38;;;;;;;15.88;3.33;;;6.20;99.90;;;;;;5078403;28;20063;-56
2022/11/25 00:47:12;;;;;;;13.38;3.10;;;6.20;99.90;;;;;;5080240;28;20342;-57
2022/11/25 00:49:39;;;;;;;16.63;3.85;;;6.30;99.90;;;;;;5066031;28;20563;-57
2022/11/25 00:52:05;;;;;;;14.27;3.70;;;6.30;99.90;;;;;;5084046;28;20056;-57
2022/11/25 00:54:34;;;;;;;11.63;3.28;;;6.30;99.90;;;;;;5048340;28;20347;-57
2022/11/25 00:57:00;;;;;;;17.00;3.47;;;6.30;99.90;;;;;;5084226;28;20060;-57
2022/11/25 00:59:27;;;;;;;17.00;4.53;;;6.30;99.90;;;;;;5078831;28;20044;-57
2022/11/25 01:01:53;;;;;;;15.48;5.40;;;6.30;99.90;;;;;;5067758;28;21181;-57
2022/11/25 01:04:18;;;;;;;12.43;3.88;;;6.40;99.90;;;;;;5081761;28;20051;-57
2022/11/25 01:06:44;;;;;;;12.88;3.72;;;6.30;99.90;;;;;;5077331;28;20418;-57
2022/11/25 01:09:11;;;;;;;15.75;4.05;;;6.30;99.90;;;;;;5083606;28;20052;-58
2022/11/25 01:11:37;;;;;;;11.57;4.30;;;6.30;99.90;;;;;;5069333;28;20057;-57
2022/11/25 01:14:03;;;;;;;12.70;4.78;;;6.40;99.90;;;;;;5067273;28;20055;-57
2022/11/25 01:18:54;;;;;;;18.20;4.75;;;6.30;99.90;;;;;;5066831;28;21374;-58
2022/11/25 01:24:00;;;;;;;12.25;3.13;;;6.40;99.90;;;;;;5068908;28;20139;-58
2022/11/25 01:26:27;;;;;;;12.50;3.50;;;6.40;99.90;;;;;;5074302;28;20048;-56
2022/11/25 01:28:58;;;;;;;20.13;4.45;;;6.40;99.90;;;;;;5072594;28;20055;-57
2022/11/25 01:31:26;;;;;;;10.20;3.38;;;6.40;99.90;;;;;;5081197;28;20055;-56
2022/11/25 01:33:55;;;;;;;13.95;4.13;;;6.40;99.90;;;;;;5077364;28;20205;-58
2022/11/25 01:36:22;;;;;;;9.15;4.05;;;6.50;99.90;;;;;;5080427;28;20056;-59
2022/11/25 01:38:53;;;;;;;10.95;3.90;;;6.40;99.90;;;;;;5071280;28;20044;-58
2022/11/25 01:41:21;;;;;;;12.07;3.35;;;6.40;99.90;;;;;;5072880;28;20351;-58
2022/11/25 01:44:08;;;;;;;11.80;3.80;;;6.50;99.90;;;;;;5073462;28;20064;-59
2022/11/25 01:46:47;;;;;;;9.82;4.40;;;6.40;99.90;;;;;;5073796;28;20060;-58
2022/11/25 01:49:29;;;;;;;18.48;4.05;;;6.40;99.90;;;;;;5055035;28;20060;-59
2022/11/25 01:52:10;;;;;;;11.18;3.03;;;6.40;99.90;;;;;;5075496;28;20044;-58
2022/11/25 01:55:09;;;;;;;18.13;6.35;;;6.40;99.90;;;;;;5071896;28;20581;-59
2022/11/25 01:57:42;;;;;;;11.65;4.03;;;6.40;99.90;;;;;;5076898;28;20052;-59
2022/11/25 02:00:09;;;;;;;16.70;4.03;;;6.40;99.90;;;;;;5071539;27;20039;-58
2022/11/25 02:02:34;;;;;;;10.00;4.05;;;6.40;99.90;;;;;;5087077;27;20174;-57
2022/11/25 02:05:05;;;;;;;14.55;3.72;;;6.40;99.90;;;;;;5066836;28;21650;-57
2022/11/25 02:07:37;;;;;;;11.98;4.25;;;6.40;99.90;;;;;;5080742;28;20228;-57
2022/11/25 02:10:10;;;;;;;8.93;2.97;;;6.30;99.90;;;;;;5076293;28;20067;-58
2022/11/25 02:12:39;;;;;;;14.00;3.63;;;6.40;99.90;;;;;;5061180;28;21299;-58
2022/11/25 02:15:05;;;;;;;13.50;4.63;;;6.40;99.90;;;;;;5074139;28;20056;-57
2022/11/25 02:17:34;;;;;;;9.15;3.50;;;6.40;99.90;;;;;;5066034;28;20053;-57
2022/11/25 02:20:26;;;;;;;11.23;4.55;;;6.40;99.90;;;;;;5082833;27;20525;-57
2022/11/25 02:23:02;;;;;;;12.50;3.05;;;6.40;99.90;;;;;;5060670;28;20074;-56
2022/11/25 02:28:05;;;;;;;9.30;3.30;;;6.50;99.90;;;;;;5073727;28;20063;-56
2022/11/25 02:30:34;;;;;;;15.00;4.10;;;6.50;99.90;;;;;;5080126;28;20070;-57
2022/11/25 02:33:00;;;;;;;13.25;3.78;;;6.50;99.90;;;;;;5082265;28;20075;-57
2022/11/25 02:38:18;;;;;;;13.15;4.82;;;6.50;99.90;;;;;;5080407;28;20067;-57
2022/11/25 02:40:50;;;;;;;12.48;4.38;;;6.50;99.90;;;;;;5071400;27;20056;-57
2022/11/25 02:43:16;;;;;;;10.05;3.53;;;6.50;99.90;;;;;;5075559;28;20113;-57
2022/11/25 02:46:07;;;;;;;13.15;4.30;;;6.50;99.90;;;;;;5088938;28;20051;-59
2022/11/25 02:48:35;;;;;;;15.43;3.83;;;6.50;99.90;;;;;;5072783;28;20470;-55
2022/11/25 02:51:01;;;;;;;10.57;4.30;;;6.50;99.90;;;;;;5078545;28;20094;-60
2022/11/25 02:53:27;;;;;;;12.93;3.03;;;6.50;99.90;;;;;;5077851;28;20467;-57
2022/11/25 02:55:53;;;;;;;8.77;3.45;;;6.50;99.90;;;;;;5065492;27;20190;-58
2022/11/25 02:58:19;;;;;;;12.30;4.32;;;6.60;99.90;;;;;;5071811;28;20116;-58
2022/11/25 03:00:45;;;;;;;11.57;3.30;;;6.60;99.90;;;;;;5064905;28;20074;-57
2022/11/25 03:03:12;;;;;;;11.32;3.78;;;6.60;99.90;;;;;;5082270;28;20868;-56
2022/11/25 03:05:38;;;;;;;10.23;3.40;;;6.60;99.90;;;;;;5083487;28;20485;-57
2022/11/25 03:08:04;;;;;;;13.57;3.92;;;6.70;99.90;;;;;;5088382;27;20108;-58
2022/11/25 03:10:33;;;;;;;14.02;3.15;;;6.60;99.90;;;;;;5085385;28;20204;-58
2022/11/25 03:13:00;;;;;;;11.43;3.65;;;6.60;99.90;;;;;;5075004;28;20064;-57
2022/11/25 03:15:26;;;;;;;13.75;4.40;;;6.60;99.90;;;;;;5067323;28;20060;-58
2022/11/25 03:17:52;;;;;;;9.93;3.28;;;6.60;99.90;;;;;;5073482;28;20505;-57
2022/11/25 03:20:19;;;;;;;9.40;2.97;;;6.60;99.90;;;;;;5080014;28;20136;-57
2022/11/25 03:22:44;;;;;;;14.07;4.28;;;6.60;99.90;;;;;;5063312;28;20052;-56
2022/11/25 03:25:12;;;;;;;12.30;3.75;;;6.60;99.90;;;;;;5074119;28;20063;-59
2022/11/25 03:27:39;;;;;;;13.40;4.00;;;6.60;99.90;;;;;;5082334;28;20449;-57
2022/11/25 03:30:07;;;;;;;12.90;4.07;;;6.60;99.90;;;;;;5079604;28;20143;-58
2022/11/25 03:32:33;;;;;;;11.77;3.25;;;6.60;99.90;;;;;;5084835;28;20060;-55
2022/11/25 03:34:59;;;;;;;8.82;2.50;;;6.70;99.90;;;;;;5071529;28;20109;-60
2022/11/25 03:37:24;;;;;;;10.50;3.35;;;6.70;99.90;;;;;;5084539;28;20067;-61
2022/11/25 03:39:50;;;;;;;12.90;3.53;;;6.70;99.90;;;;;;5066486;28;20062;-57
2022/11/25 03:42:16;;;;;;;20.23;4.63;;;6.70;99.90;;;;;;5073131;28;20058;-61
2022/11/25 03:44:41;;;;;;;7.63;3.03;;;6.70;99.90;;;;;;5082823;28;20378;-59
2022/11/25 03:47:07;;;;;;;13.20;3.83;;;6.70;99.90;;;;;;5085213;28;20081;-58
2022/11/25 03:49:33;;;;;;;13.05;4.07;;;6.70;99.90;;;;;;5072523;28;20064;-55
2022/11/25 03:51:59;;;;;;;15.82;4.22;;;6.80;99.90;;;;;;5077817;28;20094;-56
2022/11/25 03:54:24;;;;;;;12.85;3.90;;;6.80;99.90;;;;;;5064904;28;1089905;-56
2022/11/25 03:56:50;;;;;;;11.63;3.47;;;6.90;99.90;;;;;;5079311;28;20849;-57
2022/11/25 03:59:16;;;;;;;15.88;4.03;;;6.90;99.90;;;;;;5092909;28;20805;-57
2022/11/25 04:01:41;;;;;;;14.70;4.35;;;6.90;99.90;;;;;;5065918;28;20889;-57
2022/11/25 04:04:07;;;;;;;15.80;4.13;;;7.10;99.90;;;;;;5041409;28;20048;-58
2022/11/25 04:06:33;;;;;;;17.95;5.03;;;6.90;99.90;;;;;;5071784;28;20072;-53
2022/11/25 04:08:58;;;;;;;8.60;3.67;;;6.90;99.90;;;;;;5078579;28;20323;-59
2022/11/25 04:12:45;;;;;;;10.27;3.92;;;6.90;99.90;;;;;;5087781;28;20062;-58
2022/11/25 04:13:58;;;;;;;11.55;3.78;;;6.90;99.90;;;;;;5081700;28;20117;-59
2022/11/25 04:16:25;;;;;;;15.38;4.13;;;6.90;99.90;;;;;;5070344;28;20049;-59
2022/11/25 04:18:51;;;;;;;14.20;3.70;;;6.90;99.90;;;;;;5075080;28;20064;-59
2022/11/25 04:21:16;;;;;;;17.20;5.03;;;6.90;99.90;;;;;;5084513;28;20063;-59
2022/11/25 04:23:42;;;;;;;11.95;4.22;;;6.90;99.90;;;;;;5064320;28;20055;-56
2022/11/25 04:26:07;;;;;;;21.85;6.65;;;7.10;99.90;;;;;;5077178;28;20049;-57
2022/11/25 04:28:33;;;;;;;12.88;3.80;;;7.00;99.90;;;;;;5073926;28;20097;-56
2022/11/25 04:30:59;;;;;;;15.23;5.35;;;7.00;99.90;;;;;;5067422;28;20056;-58
2022/11/25 04:33:24;;;;;;;12.32;3.78;;;7.00;99.90;;;;;;5079999;28;20052;-62
2022/11/25 04:35:50;;;;;;;12.07;4.07;;;7.00;99.90;;;;;;5083334;28;20112;-65
2022/11/25 04:38:15;;;;;;;11.80;4.68;;;7.00;99.90;;;;;;5062923;28;20443;-59
2022/11/25 04:40:41;;;;;;;21.05;4.10;;;7.00;99.90;;;;;;5083676;28;20051;-62
2022/11/25 04:43:09;;;;;;;13.60;4.25;;;7.00;99.90;;;;;;5072604;28;20483;-64
2022/11/25 04:45:34;;;;;;;13.05;5.13;;;7.00;99.90;;;;;;5079073;28;20052;-60
2022/11/25 04:48:00;;;;;;;14.68;4.70;;;7.10;99.90;;;;;;5059572;28;21313;-65
2022/11/25 04:50:26;;;;;;;14.45;4.70;;;7.10;99.90;;;;;;5068956;28;20060;-63
2022/11/25 04:52:51;;;;;;;15.70;4.40;;;7.00;99.90;;;;;;5082045;27;20072;-59
2022/11/25 04:55:17;;;;;;;13.50;5.65;;;7.10;99.90;;;;;;5078976;28;20052;-65
2022/11/25 04:57:43;;;;;;;13.05;3.97;;;7.10;99.90;;;;;;5078531;28;20055;-64
2022/11/25 05:00:09;;;;;;;14.50;4.57;;;7.10;99.90;;;;;;5088505;28;20130;-59
2022/11/25 05:02:35;;;;;;;16.80;4.50;;;7.00;99.90;;;;;;5073857;28;20552;-58
2022/11/25 05:05:00;;;;;;;13.95;4.07;;;7.00;99.90;;;;;;5085861;28;20050;-58
2022/11/25 05:07:27;;;;;;;17.65;4.95;;;7.10;99.90;;;;;;5085340;28;20051;-62
2022/11/25 05:09:53;;;;;;;15.40;4.78;;;7.30;99.90;;;;;;5067871;28;20052;-63
2022/11/25 05:12:22;;;;;;;13.50;4.78;;;7.10;99.90;;;;;;5078925;28;20056;-64
2022/11/25 05:14:48;;;;;;;12.32;4.15;;;7.10;99.90;;;;;;5063543;28;20105;-57
2022/11/25 05:17:16;;;;;;;18.08;4.50;;;7.10;99.90;;;;;;5069319;28;20052;-59
2022/11/25 05:19:43;;;;;;;15.50;4.22;;;8.60;99.90;;;;;;5084820;28;20079;-59
2022/11/25 05:22:12;;;;;;;14.52;5.10;;;7.10;99.90;;;;;;5086204;28;20066;-58
2022/11/25 05:24:38;;;;;;;20.70;5.95;;;7.10;99.90;;;;;;5082208;28;20093;-58
2022/11/25 05:27:04;;;;;;;13.43;5.32;;;7.10;99.90;;;;;;5073037;28;20189;-58
2022/11/25 05:29:33;;;;;;;12.02;4.30;;;7.00;99.90;;;;;;5073155;28;20062;-57
2022/11/25 05:31:59;;;;;;;12.65;4.38;;;7.00;99.90;;;;;;5084007;28;21489;-56
2022/11/25 05:34:25;;;;;;;11.13;4.43;;;7.00;99.90;;;;;;5060999;28;20052;-58
2022/11/25 05:36:51;;;;;;;9.85;3.85;;;7.00;99.90;;;;;;5073899;28;20059;-58
2022/11/25 05:39:18;;;;;;;15.35;5.03;;;7.00;99.90;;;;;;5062576;28;20107;-57
2022/11/25 05:41:43;;;;;;;21.17;5.60;;;7.00;99.90;;;;;;5069794;28;20056;-57
2022/11/25 05:44:09;;;;;;;20.10;6.20;;;7.20;99.90;;;;;;5064668;28;20142;-57
2022/11/25 05:46:35;;;;;;;16.95;5.28;;;7.00;99.90;;;;;;5079274;28;20139;-57
2022/11/25 05:49:00;;;;;;;9.98;4.68;;;7.00;99.90;;;;;;5063554;28;20068;-58
2022/11/25 05:51:27;;;;;;;21.10;6.45;;;7.00;99.90;;;;;;5068662;28;20104;-58
2022/11/25 05:53:53;;;;;;;15.45;5.25;;;7.00;99.90;;;;;;5065228;28;20710;-57
2022/11/25 05:56:19;;;;;;;15.25;4.82;;;7.00;99.90;;;;;;5075364;28;20204;-57
2022/11/25 05:58:45;;;;;;;13.75;4.65;;;7.00;99.90;;;;;;5062811;28;20102;-57
2022/11/25 06:01:13;;;;;;;15.35;5.20;;;7.00;99.90;;;;;;5076585;28;20565;-57
2022/11/25 06:03:39;;;;;;;11.05;4.57;;;7.00;99.90;;;;;;5074262;28;20055;-58
2022/11/25 06:06:06;;;;;;;17.70;4.72;;;7.20;99.90;;;;;;5087854;28;20052;-57
2022/11/25 06:08:35;;;;;;;19.02;5.72;;;7.00;99.90;;;;;;5064249;28;20082;-57
2022/11/25 06:11:12;;;;;;;12.82;4.03;;;7.00;99.90;;;;;;5081054;28;20108;-57
2022/11/25 06:13:39;;;;;;;22.40;5.47;;;7.00;99.90;;;;;;5068928;28;20080;-56
2022/11/25 06:16:17;;;;;;;15.43;5.35;;;7.00;99.90;;;;;;5065614;28;20055;-57
2022/11/25 06:18:43;;;;;;;22.13;5.53;;;7.00;99.90;;;;;;5079801;28;20130;-58
2022/11/25 06:21:10;;;;;;;15.15;4.75;;;7.10;99.90;;;;;;5064447;28;20470;-58
2022/11/25 06:23:37;;;;;;;16.65;6.22;;;7.10;99.90;;;;;;5076799;28;20559;-57
2022/11/25 06:26:13;;;;;;;15.13;5.32;;;7.50;99.90;;;;;;5069628;28;20143;-57
2022/11/25 06:28:39;;;;;;;14.43;6.55;;;7.20;99.90;;;;;;5076895;28;20056;-61
2022/11/25 06:31:07;;;;;;;17.13;6.43;;;7.20;99.90;;;;;;5059316;28;20068;-59
2022/11/25 06:33:33;;;;;;;11.13;5.75;;;7.20;99.90;;;;;;5083577;28;20056;-57
2022/11/25 06:36:00;;;;;;;11.23;6.07;;;7.30;99.90;;;;;;5077186;28;20113;-61
2022/11/25 06:38:27;;;;;;;17.85;6.10;;;7.30;99.90;;;;;;5060068;28;20053;-61
2022/11/25 06:40:52;;;;;;;10.25;5.72;;;7.30;99.90;;;;;;5073233;28;20361;-58
2022/11/25 06:43:18;;;;;;;12.80;6.63;;;7.40;99.90;;;;;;5076700;28;20425;-60
2022/11/25 06:45:43;;;;;;;18.75;5.95;;;7.40;99.90;;;;;;5077293;28;20064;-59
2022/11/25 06:48:09;;;;;;;13.60;5.82;;;7.40;99.90;;;;;;5071000;28;20085;-58
2022/11/25 06:50:35;;;;;;;19.60;6.18;;;7.40;99.90;;;;;;5076120;28;20051;-62
2022/11/25 06:53:01;;;;;;;15.20;7.10;;;7.40;99.90;;;;;;5073847;28;20055;-59
2022/11/25 06:55:27;;;;;;;17.73;6.07;;;7.40;99.90;;;;;;5059964;28;20091;-57
2022/11/25 06:57:52;;;;;;;16.88;7.55;;;7.50;99.90;;;;;;5036928;28;20178;-57
2022/11/25 07:00:18;;;;;;;11.52;6.00;;;7.50;99.90;;;;;;5074231;28;20167;-57
2022/11/25 07:02:44;;;;;;;22.60;6.70;;;7.50;99.90;;;;;;5091000;28;20059;-58
2022/11/25 07:05:10;;;;;;;16.35;7.03;;;7.60;99.90;;;;;;5075615;28;20048;-57
2022/11/25 07:07:36;;;;;;;16.85;6.30;;;7.60;99.90;;;;;;5063143;28;20860;-57
2022/11/25 07:10:02;;;;;;;16.75;6.72;;;7.60;99.90;;;;;;5067470;28;20059;-57
2022/11/25 07:12:33;;;;;;;14.73;6.85;;;7.60;99.90;;;;;;5070492;28;20418;-57
2022/11/25 07:14:58;;;;;;;16.05;5.30;;;7.60;99.90;;;;;;5057400;28;20055;-59
2022/11/25 07:17:24;;;;;;;18.80;5.85;;;7.60;99.90;;;;;;5083290;28;20393;-57
2022/11/25 07:19:50;;;;;;;16.70;4.90;;;7.60;99.90;;;;;;5077183;28;20558;-57
2022/11/25 07:22:15;;;;;;;10.77;5.78;;;7.80;99.90;;;;;;5084430;28;20111;-57
2022/11/25 07:24:41;;;;;;;12.15;5.57;;;7.60;99.90;;;;;;5088271;28;20059;-57
2022/11/25 07:27:07;;;;;;;11.20;5.75;;;7.60;99.90;;;;;;5088121;28;20078;-58
2022/11/25 07:29:34;;;;;;;13.23;5.15;;;7.80;99.90;;;;;;5089323;28;20060;-58
2022/11/25 07:32:00;;;;;;;15.23;4.82;;;7.70;99.90;;;;;;5064992;28;20072;-57
2022/11/25 07:34:26;;;;;;;12.70;4.78;;;7.60;99.90;;;;;;5072942;28;20139;-57
2022/11/25 07:36:52;;;;;;;15.73;4.97;;;7.60;99.90;;;;;;5094356;27;20056;-58
2022/11/25 07:39:20;;;;;;;18.08;6.47;;;7.60;99.90;;;;;;5086374;28;20066;-59
2022/11/25 07:41:49;;;;;;;11.73;4.93;;;7.70;99.90;;;;;;5070607;28;20132;-58
2022/11/25 07:44:15;;;;;;;14.95;5.05;;;8.00;99.90;;;;;;5085088;28;20480;-57
2022/11/25 07:46:43;;;;;;;11.43;5.35;;;7.70;99.90;;;;;;5088862;28;20070;-57
2022/11/25 07:49:11;;;;;;;11.35;5.32;;;7.70;99.90;;;;;;5088226;28;20047;-57
2022/11/25 07:51:38;;;;;;;13.98;4.78;;;7.70;99.90;;;;;;5079150;27;20062;-57
2022/11/25 07:54:07;;;;;;;16.48;4.80;;;7.90;99.90;;;;;;5080284;28;20060;-57
2022/11/25 07:56:34;;;;;;;13.95;4.63;;;7.80;99.90;;;;;;5082794;28;20055;-54
2022/11/25 07:59:00;;;;;;;10.07;5.68;;;7.80;99.90;;;;;;5067421;28;20093;-57
2022/11/25 08:01:26;;;;;;;18.88;4.25;;;7.70;99.90;;;;;;5081111;28;20059;-57
2022/11/25 08:03:53;;;;;;;9.75;4.43;;;7.70;99.90;;;;;;5071683;28;20138;-57
2022/11/25 08:06:21;;;;;;;8.88;3.75;;;7.80;99.90;;;;;;5070751;28;20076;-57
2022/11/25 08:08:48;;;;;;;7.97;4.38;;;7.80;99.90;;;;;;5070202;28;20051;-57
2022/11/25 08:11:26;;;;;;;17.17;4.72;;;8.00;99.90;;;;;;5071495;28;20059;-57
2022/11/25 08:13:52;;;;;;;7.43;3.72;;;7.80;99.90;;;;;;5040650;28;1121552;-57
2022/11/25 08:16:20;;;;;;;10.25;3.92;;;7.90;99.90;;;;;;5070884;28;20057;-57
2022/11/25 08:18:46;;;;;;;7.70;3.90;;;8.00;99.90;;;;;;5078253;28;20060;-57
2022/11/25 08:21:14;;;;;;;7.75;3.75;;;8.00;99.90;;;;;;5075712;28;20120;-57
2022/11/25 08:23:42;;;;;;;6.00;3.20;;;8.00;99.90;;;;;;5075799;28;20044;-56
2022/11/25 08:26:24;;;;;;;7.72;3.17;;;8.10;99.90;;;;;;5088590;28;20083;-58
2022/11/25 08:28:51;;;;;;;9.18;3.35;;;8.10;99.90;;;;;;5066126;28;20067;-58
2022/11/25 08:31:23;;;;;;;10.48;3.10;;;8.10;99.90;;;;;;5076644;28;20063;-57
2022/11/25 08:33:49;;;;;;;7.93;3.33;;;8.10;99.90;;;;;;5064575;28;20048;-57
2022/11/25 08:36:16;;;;;;;7.28;2.95;;;8.10;99.90;;;;;;5081357;28;20059;-57
2022/11/25 08:38:43;;;;;;;11.50;3.33;;;8.10;99.90;;;;;;5072851;28;20048;-57
2022/11/25 08:41:17;;;;;;;6.75;3.38;;;8.10;99.90;;;;;;5077945;27;20044;-58
2022/11/25 08:43:44;;;;;;;6.90;3.28;;;8.10;99.90;;;;;;5073116;28;20113;-59
2022/11/25 08:46:12;;;;;;;8.30;3.20;;;8.10;99.90;;;;;;5082260;28;20052;-57
2022/11/25 08:48:38;;;;;;;8.18;2.42;;;8.20;99.90;;;;;;5056831;28;20054;-58
2022/11/25 08:51:12;;;;;;;9.57;2.85;;;8.10;99.90;;;;;;5064057;28;20048;-59
2022/11/25 08:53:38;;;;;;;10.73;2.85;;;8.20;99.90;;;;;;5062019;28;20271;-58
2022/11/25 08:56:05;;;;;;;8.50;2.88;;;8.40;99.90;;;;;;5078906;28;20063;-59
2022/11/25 08:58:35;;;;;;;7.07;3.28;;;8.20;99.90;;;;;;5074711;28;20059;-59
2022/11/25 09:01:02;;;;;;;10.00;2.75;;;8.20;99.90;;;;;;5075935;28;20414;-59
2022/11/25 09:03:33;;;;;;;5.50;2.70;;;8.20;99.90;;;;;;5078508;28;20131;-57
2022/11/25 09:05:59;;;;;;;7.45;3.13;;;8.30;99.90;;;;;;5080948;28;20481;-57
2022/11/25 09:08:26;;;;;;;5.45;3.17;;;8.40;99.90;;;;;;5072516;28;20052;-57
2022/11/25 09:10:51;;;;;;;13.93;3.05;;;8.40;99.90;;;;;;5068342;28;20060;-56
2022/11/25 09:13:17;;;;;;;7.80;3.35;;;8.60;99.90;;;;;;5078561;28;20048;-57
2022/11/25 09:15:43;;;;;;;5.03;2.55;;;8.60;99.90;;;;;;5080712;28;20539;-57
2022/11/25 09:18:10;;;;;;;8.65;2.78;;;8.60;99.90;;;;;;5085376;28;20056;-57
2022/11/25 09:20:39;;;;;;;9.43;2.65;;;8.60;99.90;;;;;;5063014;28;20056;-58
2022/11/25 09:23:07;;;;;;;8.95;2.88;;;8.60;99.90;;;;;;5063560;28;20142;-57
2022/11/25 09:25:34;;;;;;;4.53;2.70;;;8.70;99.90;;;;;;5082442;28;20587;-57
2022/11/25 09:28:00;;;;;;;6.60;2.40;;;8.60;99.90;;;;;;5067877;28;20055;-57
2022/11/25 09:30:26;;;;;;;8.02;3.05;;;8.90;99.90;;;;;;5071437;28;20055;-56
2022/11/25 09:32:54;;;;;;;9.40;4.70;;;8.80;99.90;;;;;;5080595;28;20064;-57
2022/11/25 09:35:20;;;;;;;9.35;3.47;;;9.00;99.90;;;;;;5072695;28;20060;-57
2022/11/25 09:37:46;;;;;;;8.80;3.35;;;8.90;99.90;;;;;;5067098;28;20062;-58
2022/11/25 09:40:33;;;;;;;8.60;3.28;;;8.90;99.90;;;;;;5079710;28;20053;-59
2022/11/25 09:49:18;;;;;;;7.95;3.58;;;9.10;99.90;;;;;;5076951;28;20138;-57
2022/11/25 09:52:08;;;;;;;8.20;3.25;;;9.10;99.90;;;;;;5058176;28;20113;-57
2022/11/25 09:55:10;;;;;;;9.18;3.50;;;9.20;99.90;;;;;;5058630;28;20052;-59
2022/11/25 09:57:42;;;;;;;10.73;3.30;;;9.30;99.90;;;;;;5068461;28;20055;-60
2022/11/25 10:00:18;;;;;;;7.38;3.05;;;9.30;99.90;;;;;;5074870;28;20044;-57
2022/11/25 10:03:02;;;;;;;7.32;3.08;;;9.50;99.90;;;;;;5053641;28;20092;-62
2022/11/25 10:05:33;;;;;;;10.23;3.13;;;9.50;99.90;;;;;;5070649;28;20048;-58
2022/11/25 10:08:08;;;;;;;6.28;3.20;;;9.60;99.90;;;;;;5059650;28;20052;-61
2022/11/25 10:10:46;;;;;;;7.07;2.90;;;9.70;99.90;;;;;;5076878;28;20497;-67
2022/11/25 10:13:33;;;;;;;5.85;2.60;;;9.90;99.90;;;;;;5075095;28;20435;-59
2022/11/25 10:16:02;;;;;;;9.35;3.67;;;10.00;99.90;;;;;;5083660;28;20173;-64
2022/11/25 10:18:33;;;;;;;5.47;2.78;;;10.10;99.90;;;;;;5083082;28;20048;-63
2022/11/25 10:20:59;;;;;;;5.13;2.33;;;10.20;99.90;;;;;;5067348;28;20094;-57
2022/11/25 10:23:33;;;;;;;6.45;3.15;;;10.20;99.90;;;;;;5076417;28;20166;-58
2022/11/25 10:26:09;;;;;;;6.55;2.00;;;10.40;99.90;;;;;;5074458;28;20086;-57
2022/11/25 10:28:36;;;;;;;6.50;2.70;;;10.40;99.90;;;;;;5074431;28;20095;-57
2022/11/25 10:31:11;;;;;;;10.25;3.03;;;10.50;99.90;;;;;;5066169;28;20455;-57
2022/11/25 10:33:50;;;;;;;7.18;2.42;;;10.60;99.90;;;;;;5081839;28;20052;-56
2022/11/25 10:36:23;;;;;;;8.68;3.50;;;10.70;99.90;;;;;;5066572;28;20089;-57
2022/11/25 10:38:54;;;;;;;5.03;2.08;;;10.80;99.90;;;;;;5073434;28;20070;-57
2022/11/25 10:41:22;;;;;;;7.50;2.70;;;10.90;99.90;;;;;;5074712;28;20063;-57
2022/11/25 10:43:48;;;;;;;7.20;2.90;;;10.90;99.90;;;;;;5073958;28;20064;-57
2022/11/25 10:49:13;;;;;;;4.55;2.25;;;11.10;99.90;;;;;;5055075;28;20124;-57
2022/11/25 10:51:45;;;;;;;8.25;2.45;;;11.10;99.90;;;;;;5062603;28;20044;-57
2022/11/25 10:54:14;;;;;;;8.50;3.10;;;11.20;99.90;;;;;;5066889;28;20068;-63
2022/11/25 10:56:53;;;;;;;5.47;2.20;;;11.20;99.90;;;;;;5070855;28;20113;-60
